To NAV CANADA Home Page Login to a new session Search on AWWS site Disclaimer Vers la page française équivalente Tips FAQ What's new on the site To the Forecasts and Observations / NOTAM section To "File a Flight Plan" website Publications and other links Update of the User's profile FIC Telephone Numbers My Weather Data Folder Route Weather Data Regional Weather Data Local Weather Data To the Forecasts and Observations / NOTAM section
Request Generated 01/26/2023 at 22:07:37 UTC . Weather information available at that time is displayed.

METAR/TAF

BAKER LAKE/NU    

METAR CYBK 262200Z 31011KT 1 3/4SM IC BLSN BKN065 M32/M36 A2984 RMK SC7 SLP110=
SPECI CYBK 262140Z 31014G21KT 1 1/2SM IC BLSN BKN068 M32/M36 A2983 RMK AC7 SLP107=
METAR CYBK 262100Z 32025KT 3SM IC BLSN BKN068 M32/M37 A2981 RMK AC7 SLP100=
SPECI CYBK 262023Z 31022KT 3SM IC BLSN SCT074 BKN081 M33/M37 A2981 RMK AC3AC3 SLP100=
METAR CYBK 262000Z 31022G27KT 2SM IC BLSN SCT065 M33/M37 A2981 RMK SC4 SLP101=

TAF CYBK 261740Z 2618/2706 31020KT P6SM SCT020 BKN040 BKN070 TEMPO
2618/2706 2SM -SN BLSN BKN020 BKN040
RMK NXT FCST BY 270000Z
Your time UTC time
Weather data provided by Environment Canada and NAV CANADA